Decoded Metar for K2G4 (GARRETT CO in MD, USA) (IATA:2G4) | Meteo·Mobile Aviation Weather
aviador You're here:

K2G4 Decoded Metar

GARRETT CO in MD, USA
Report Time2018-11-18 01:45:00
UTC Time2018-11-18 02:02:05
Flight Rules mvfr MVFR
WindCalm
Visibility6437 m
Phenomena:N/A
Clouds:N/A
CeilingNone
Temp-2°C (ISA -11)
Dew Point-2°C (100% RH)
AAT-4.3°C
QNH1023 hPa
Density Alt1,316 ft
Elevation2,933 ft
Report Wrong Elevation
Raw Report
K2G4 180145Z AUTO 00000KT 4SM CLR M02/M02 A3022 RMK AO1=

Extra information for K2G4:More info

Metar Taf Metar & Taf Last 4 Metars F.Rules Stats Wind Profile Meteogram Temp Stats Airport Information Weather charts Add Link Nearby VenuesMetar ALERT Operation Metar Decoded Social comments

AIRNAV info for K2G4